createdAt,value
2022-08-24T00:01:47.023Z,12.70
2022-08-24T00:04:13.814Z,12.60
2022-08-24T00:06:43.061Z,12.60
2022-08-24T00:09:09.916Z,12.60
2022-08-24T00:11:36.680Z,12.60
2022-08-24T00:14:03.914Z,12.50
2022-08-24T00:16:30.789Z,12.50
2022-08-24T00:18:57.886Z,12.50
2022-08-24T00:21:25.839Z,12.50
2022-08-24T00:23:52.909Z,12.50
2022-08-24T00:26:29.129Z,12.50
2022-08-24T00:28:56.967Z,12.50
2022-08-24T00:31:24.572Z,12.50
2022-08-24T00:33:51.373Z,12.50
2022-08-24T00:36:18.193Z,12.40
2022-08-24T00:38:44.957Z,12.40
2022-08-24T00:41:14.770Z,12.40
2022-08-24T00:43:54.209Z,12.40
2022-08-24T00:46:30.656Z,12.30
2022-08-24T00:49:04.244Z,12.30
2022-08-24T00:51:40.504Z,12.30
2022-08-24T00:54:13.683Z,12.30
2022-08-24T00:56:47.453Z,12.20
2022-08-24T00:59:28.881Z,12.20
2022-08-24T01:02:14.298Z,12.20
2022-08-24T01:04:53.284Z,12.20
2022-08-24T01:07:22.808Z,12.20
2022-08-24T01:09:55.602Z,12.10
2022-08-24T01:12:24.541Z,12.10
2022-08-24T01:14:51.457Z,12.10
2022-08-24T01:17:39.040Z,12.10
2022-08-24T01:20:09.028Z,12.00
2022-08-24T01:22:55.384Z,12.00
2022-08-24T01:25:24.901Z,11.90
2022-08-24T01:27:59.389Z,11.90
2022-08-24T01:30:33.738Z,11.90
2022-08-24T01:33:06.636Z,11.90
2022-08-24T01:35:36.560Z,11.90
2022-08-24T01:38:07.562Z,11.80
2022-08-24T01:40:38.542Z,11.80
2022-08-24T01:43:07.224Z,11.80
2022-08-24T01:45:34.571Z,11.80
2022-08-24T01:48:03.101Z,11.80
2022-08-24T01:50:30.212Z,11.70
2022-08-24T01:53:05.251Z,11.70
2022-08-24T01:55:32.903Z,11.70
2022-08-24T01:58:00.381Z,11.60
2022-08-24T02:00:28.130Z,11.60
2022-08-24T02:02:56.546Z,11.60
2022-08-24T02:05:24.659Z,11.60
2022-08-24T02:07:51.900Z,11.60
2022-08-24T02:10:19.309Z,11.50
2022-08-24T02:12:57.842Z,11.60
2022-08-24T02:15:31.209Z,11.60
2022-08-24T02:17:58.363Z,11.50
2022-08-24T02:20:25.235Z,11.50
2022-08-24T02:22:52.974Z,11.50
2022-08-24T02:25:20.253Z,11.50
2022-08-24T02:27:47.037Z,11.40
2022-08-24T02:30:13.971Z,11.40
2022-08-24T02:32:42.116Z,11.40
2022-08-24T02:35:10.098Z,11.40
2022-08-24T02:37:43.727Z,11.30
2022-08-24T02:40:12.869Z,11.30
2022-08-24T02:42:40.562Z,11.30
2022-08-24T02:45:08.560Z,11.30
2022-08-24T02:47:38.826Z,11.30
2022-08-24T02:50:09.231Z,11.30
2022-08-24T02:52:38.052Z,11.30
2022-08-24T02:55:06.248Z,11.30
2022-08-24T02:57:33.325Z,11.30
2022-08-24T03:00:00.115Z,11.20
2022-08-24T03:02:27.181Z,11.20
2022-08-24T03:04:54.294Z,11.20
2022-08-24T03:07:21.067Z,11.20
2022-08-24T03:09:48.042Z,11.10
2022-08-24T03:12:15.472Z,11.10
2022-08-24T03:14:42.258Z,11.10
2022-08-24T03:17:09.083Z,11.10
2022-08-24T03:19:35.944Z,11.10
2022-08-24T03:22:02.883Z,11.00
2022-08-24T03:24:29.804Z,11.00
2022-08-24T03:26:56.599Z,11.00
2022-08-24T03:29:26.351Z,11.00
2022-08-24T03:31:53.139Z,11.00
2022-08-24T03:34:20.971Z,11.00
2022-08-24T03:36:47.773Z,10.90
2022-08-24T03:39:16.231Z,10.90
2022-08-24T03:41:43.364Z,10.90
2022-08-24T03:44:10.138Z,10.90
2022-08-24T03:46:38.425Z,10.90
2022-08-24T03:49:08.546Z,10.90
2022-08-24T03:51:35.743Z,10.90
2022-08-24T03:54:03.819Z,10.80
2022-08-24T03:56:30.883Z,10.80
2022-08-24T03:58:58.141Z,10.80
2022-08-24T04:01:25.738Z,10.80
2022-08-24T04:03:54.214Z,10.80
2022-08-24T04:06:22.368Z,10.70
2022-08-24T04:08:49.779Z,10.80
2022-08-24T04:11:19.886Z,10.70
2022-08-24T04:13:48.107Z,10.70
2022-08-24T04:16:18.952Z,10.70
2022-08-24T04:18:47.022Z,10.70
2022-08-24T04:21:21.308Z,10.70
2022-08-24T04:23:48.726Z,10.70
2022-08-24T04:26:16.761Z,10.70
2022-08-24T04:29:08.168Z,10.70
2022-08-24T04:31:37.134Z,10.70
2022-08-24T04:34:04.664Z,10.70
2022-08-24T04:36:32.504Z,10.70
2022-08-24T04:39:01.094Z,10.70
2022-08-24T04:41:31.373Z,10.70
2022-08-24T04:43:59.463Z,10.70
2022-08-24T04:46:28.511Z,10.70
2022-08-24T04:48:55.474Z,10.80
2022-08-24T04:51:22.777Z,10.80
2022-08-24T04:53:50.623Z,10.80
2022-08-24T04:56:24.096Z,10.80
2022-08-24T04:58:55.547Z,10.90
2022-08-24T05:01:26.590Z,10.90
2022-08-24T05:03:55.095Z,11.00
2022-08-24T05:06:24.179Z,11.00
2022-08-24T05:08:51.673Z,11.10
2022-08-24T05:11:21.538Z,11.20
2022-08-24T05:13:48.632Z,11.20
2022-08-24T05:16:19.973Z,11.30
2022-08-24T05:18:47.784Z,11.40
2022-08-24T05:21:17.569Z,11.50
2022-08-24T05:23:45.811Z,11.60
2022-08-24T05:26:16.480Z,11.70
2022-08-24T05:28:43.696Z,11.70
2022-08-24T05:31:17.627Z,11.90
2022-08-24T05:33:44.690Z,12.00
2022-08-24T05:36:21.258Z,12.50
2022-08-24T05:38:49.415Z,13.70
2022-08-24T05:41:16.831Z,15.50
2022-08-24T05:43:44.340Z,17.40
2022-08-24T05:46:11.959Z,19.20
2022-08-24T05:48:38.861Z,21.20
2022-08-24T05:51:07.652Z,23.00
2022-08-24T05:53:34.992Z,24.80
2022-08-24T05:56:07.374Z,26.60
2022-08-24T05:58:35.007Z,28.20
2022-08-24T06:01:12.000Z,29.60
2022-08-24T06:03:39.968Z,30.90
2022-08-24T06:06:08.505Z,32.00
2022-08-24T06:08:42.000Z,33.00
2022-08-24T06:11:10.532Z,33.90
2022-08-24T06:13:37.970Z,34.70
2022-08-24T06:16:21.259Z,35.40
2022-08-24T06:18:58.171Z,36.00
2022-08-24T06:21:28.342Z,36.70
2022-08-24T06:23:56.480Z,37.20
2022-08-24T06:26:41.927Z,37.70
2022-08-24T06:29:09.424Z,38.20
2022-08-24T06:31:41.987Z,38.70
2022-08-24T06:34:13.840Z,39.00
2022-08-24T06:36:40.760Z,39.40
2022-08-24T06:39:09.947Z,39.70
2022-08-24T06:41:38.425Z,40.10
2022-08-24T06:44:06.882Z,40.60
2022-08-24T06:46:33.774Z,40.80
2022-08-24T06:49:00.902Z,41.10
2022-08-24T06:51:28.093Z,41.30
2022-08-24T06:53:58.714Z,41.70
2022-08-24T06:56:25.554Z,41.90
2022-08-24T06:58:52.384Z,42.10
2022-08-24T07:01:21.878Z,42.30
2022-08-24T07:03:48.657Z,42.40
2022-08-24T07:06:15.798Z,42.50
2022-08-24T07:08:43.448Z,42.70
2022-08-24T07:11:11.517Z,42.80
2022-08-24T07:13:38.745Z,42.90
2022-08-24T07:16:05.927Z,43.00
2022-08-24T07:18:33.117Z,43.20
2022-08-24T07:21:04.727Z,43.50
2022-08-24T07:23:41.562Z,43.70
2022-08-24T07:26:21.071Z,43.90
2022-08-24T07:28:49.820Z,44.00
2022-08-24T07:31:16.702Z,44.00
2022-08-24T07:33:43.503Z,43.90
2022-08-24T07:36:10.514Z,43.90
2022-08-24T07:38:43.652Z,43.90
2022-08-24T07:41:36.507Z,43.60
2022-08-24T07:43:57.931Z,43.60
2022-08-24T07:46:25.051Z,43.80
2022-08-24T07:49:00.104Z,43.80
2022-08-24T07:51:39.223Z,43.70
2022-08-24T07:54:12.208Z,43.50
2022-08-24T07:56:41.556Z,43.70
2022-08-24T07:59:12.816Z,43.60
2022-08-24T08:01:40.757Z,43.80
2022-08-24T08:04:07.907Z,43.80
2022-08-24T08:06:34.785Z,43.90
2022-08-24T08:09:03.079Z,44.10
2022-08-24T08:11:29.813Z,44.10
2022-08-24T08:13:56.563Z,43.90
2022-08-24T08:16:23.392Z,43.80
2022-08-24T08:18:56.534Z,43.90
2022-08-24T08:21:51.253Z,43.90
2022-08-24T08:24:20.452Z,43.40
2022-08-24T08:26:50.616Z,43.20
2022-08-24T08:29:19.390Z,43.40
2022-08-24T08:31:46.774Z,43.40
2022-08-24T08:34:14.202Z,43.20
2022-08-24T08:36:41.515Z,43.20
2022-08-24T08:39:11.008Z,43.10
2022-08-24T08:41:51.594Z,43.00
2022-08-24T08:44:55.581Z,42.80
2022-08-24T08:47:50.403Z,42.50
2022-08-24T08:50:29.586Z,42.60
2022-08-24T08:53:11.316Z,42.60
2022-08-24T08:56:03.170Z,42.10
2022-08-24T08:58:59.413Z,41.50
2022-08-24T09:01:46.948Z,41.30
2022-08-24T09:04:29.300Z,41.20
2022-08-24T09:07:08.556Z,41.20
2022-08-24T09:09:44.094Z,41.10
2022-08-24T09:12:56.683Z,41.30
2022-08-24T09:15:26.237Z,41.50
2022-08-24T09:18:28.014Z,41.20
2022-08-24T09:21:14.259Z,40.90
2022-08-24T09:24:01.489Z,40.80
2022-08-24T09:26:46.828Z,41.10
2022-08-24T09:29:23.423Z,41.30
2022-08-24T09:32:19.268Z,41.50
2022-08-24T09:35:01.577Z,41.30
2022-08-24T09:38:04.691Z,41.30
2022-08-24T09:40:46.108Z,41.50
2022-08-24T09:43:31.506Z,41.30
2022-08-24T09:46:20.318Z,41.50
2022-08-24T09:49:18.367Z,41.20
2022-08-24T09:52:02.241Z,41.00
2022-08-24T09:54:46.995Z,41.10
2022-08-24T09:57:15.479Z,41.30
2022-08-24T10:00:04.159Z,41.30
2022-08-24T10:02:33.673Z,40.30
2022-08-24T10:05:05.731Z,39.60
2022-08-24T10:08:05.965Z,38.10
2022-08-24T10:10:54.559Z,36.90
2022-08-24T10:14:08.471Z,36.90
2022-08-24T10:16:59.007Z,37.00
2022-08-24T10:19:34.396Z,37.40
2022-08-24T10:22:07.128Z,37.40
2022-08-24T10:24:55.676Z,37.20
2022-08-24T10:27:39.934Z,37.00
2022-08-24T10:30:31.693Z,37.00
2022-08-24T10:33:14.993Z,37.10
2022-08-24T10:36:03.455Z,37.10
2022-08-24T10:39:07.079Z,36.70
2022-08-24T10:42:05.118Z,36.30
2022-08-24T10:44:41.739Z,36.30
2022-08-24T10:47:21.096Z,36.00
2022-08-24T10:50:09.441Z,35.60
2022-08-24T10:52:51.604Z,35.40
2022-08-24T10:55:26.679Z,35.40
2022-08-24T11:02:33.016Z,35.00
2022-08-24T11:05:44.760Z,34.30
2022-08-24T11:08:22.454Z,33.70
2022-08-24T11:11:15.728Z,33.40
2022-08-24T11:14:19.497Z,33.00
2022-08-24T11:17:00.879Z,32.70
2022-08-24T11:19:50.551Z,32.40
2022-08-24T11:23:14.324Z,31.70
2022-08-24T11:26:45.318Z,31.00
2022-08-24T11:33:03.294Z,30.60
2022-08-24T11:35:44.367Z,30.40
2022-08-24T11:38:46.678Z,30.40
2022-08-24T11:41:31.606Z,30.20
2022-08-24T11:44:38.550Z,30.00
2022-08-24T11:47:56.723Z,29.90
2022-08-24T11:51:08.314Z,29.60
2022-08-24T11:54:09.004Z,29.00
2022-08-24T12:00:29.329Z,28.60
2022-08-24T12:03:16.394Z,28.30
2022-08-24T12:06:13.652Z,28.00
2022-08-24T12:09:21.701Z,28.00
2022-08-24T12:12:26.308Z,27.70
2022-08-24T12:15:17.119Z,27.30
2022-08-24T12:18:39.252Z,27.20
2022-08-24T12:21:27.976Z,27.20
2022-08-24T12:24:12.131Z,26.90
2022-08-24T12:27:01.803Z,26.60
2022-08-24T12:29:45.693Z,26.40
2022-08-24T12:32:39.045Z,26.40
2022-08-24T12:35:34.674Z,26.30
2022-08-24T12:38:17.401Z,26.30
2022-08-24T12:41:14.704Z,26.30
2022-08-24T12:44:07.398Z,26.30
2022-08-24T12:46:38.737Z,26.20
2022-08-24T12:49:36.848Z,26.20
2022-08-24T12:52:17.735Z,26.20
2022-08-24T23:09:44.846Z,16.20
2022-08-24T23:12:15.568Z,16.10
2022-08-24T23:14:43.191Z,16.10
2022-08-24T23:17:10.901Z,16.00
2022-08-24T23:19:56.705Z,16.00
2022-08-24T23:22:23.562Z,16.00
2022-08-24T23:24:52.957Z,15.90
2022-08-24T23:27:20.316Z,15.90
2022-08-24T23:29:48.537Z,15.90
2022-08-24T23:32:17.650Z,15.80
2022-08-24T23:34:46.518Z,15.80
2022-08-24T23:37:14.012Z,15.80
2022-08-24T23:39:40.856Z,15.70
2022-08-24T23:42:07.816Z,15.70
2022-08-24T23:44:34.889Z,15.70
2022-08-24T23:47:02.064Z,15.60
2022-08-24T23:49:29.810Z,15.60
2022-08-24T23:51:57.938Z,15.60
2022-08-24T23:54:25.361Z,15.60
2022-08-24T23:56:53.152Z,15.50
2022-08-24T23:59:24.543Z,15.50
